createdAt,value
2018-09-01T00:00:16.459Z,8.75
2018-09-01T00:02:51.236Z,8.68
2018-09-01T00:05:26.101Z,8.95
2018-09-01T00:08:00.828Z,8.38
2018-09-01T00:10:35.532Z,8.38
2018-09-01T00:13:11.244Z,8.60
2018-09-01T00:15:46.004Z,8.25
2018-09-01T00:18:20.730Z,8.25
2018-09-01T00:20:56.527Z,8.25
2018-09-01T00:23:31.247Z,7.62
2018-09-01T00:26:06.019Z,7.45
2018-09-01T00:28:40.727Z,7.25
2018-09-01T00:31:15.464Z,7.40
2018-09-01T00:33:50.151Z,6.70
2018-09-01T00:36:24.901Z,7.35
2018-09-01T00:39:03.397Z,8.05
2018-09-01T00:41:38.140Z,7.30
2018-09-01T00:44:12.875Z,7.45
2018-09-01T00:46:47.584Z,7.70
2018-09-01T00:49:22.278Z,6.95
2018-09-01T00:51:57.003Z,8.20
2018-09-01T00:54:31.758Z,6.78
2018-09-01T00:57:07.788Z,7.47
2018-09-01T00:59:42.568Z,6.83
2018-09-01T01:02:17.302Z,7.12
2018-09-01T01:04:51.980Z,7.10
2018-09-01T01:07:26.740Z,7.70
2018-09-01T01:10:01.395Z,7.85
2018-09-01T01:12:37.111Z,8.45
2018-09-01T01:15:12.358Z,7.70
2018-09-01T01:17:47.167Z,7.65
2018-09-01T01:20:21.872Z,7.83
2018-09-01T01:22:56.632Z,8.00
2018-09-01T01:25:31.314Z,7.20
2018-09-01T01:28:06.142Z,7.42
2018-09-01T01:30:40.933Z,7.37
2018-09-01T01:33:15.714Z,6.22
2018-09-01T01:35:50.411Z,7.08
2018-09-01T01:38:25.157Z,6.70
2018-09-01T01:41:00.851Z,6.83
2018-09-01T01:43:36.636Z,6.40
2018-09-01T01:46:11.367Z,7.17
2018-09-01T01:48:47.172Z,7.20
2018-09-01T01:51:21.870Z,7.55
2018-09-01T01:53:56.594Z,6.50
2018-09-01T01:56:30.723Z,5.65
2018-09-01T01:59:05.875Z,6.28
2018-09-01T02:01:41.047Z,6.03
2018-09-01T02:04:15.771Z,6.10
2018-09-01T02:06:50.463Z,7.00
2018-09-01T02:09:24.650Z,5.60
2018-09-01T02:11:59.319Z,6.12
2018-09-01T02:14:33.714Z,6.10
2018-09-01T02:17:08.133Z,6.30
2018-09-01T02:19:43.851Z,5.65
2018-09-01T02:22:18.551Z,5.75
2018-09-01T02:24:52.691Z,5.27
2018-09-01T02:27:27.085Z,6.73
2018-09-01T02:30:01.286Z,7.03
2018-09-01T02:32:36.544Z,9.57
2018-09-01T02:35:11.755Z,8.70
2018-09-01T02:37:47.502Z,9.38
2018-09-01T02:40:21.719Z,8.70
2018-09-01T02:42:56.477Z,9.23
2018-09-01T02:45:30.671Z,9.87
2018-09-01T02:48:04.886Z,9.90
2018-09-01T02:50:39.073Z,7.57
2018-09-01T02:53:13.289Z,6.93
2018-09-01T02:55:47.535Z,5.90
2018-09-01T02:58:21.727Z,5.47
2018-09-01T03:01:00.888Z,6.70
2018-09-01T03:03:35.055Z,6.07
2018-09-01T03:06:09.236Z,6.40
2018-09-01T03:08:43.431Z,7.00
2018-09-01T03:11:17.684Z,6.93
2018-09-01T03:13:52.907Z,5.70
2018-09-01T03:16:27.083Z,6.60
2018-09-01T03:19:01.473Z,6.50
2018-09-01T03:21:36.896Z,6.60
2018-09-01T03:24:11.084Z,5.80
2018-09-01T03:26:46.255Z,6.07
2018-09-01T03:29:20.414Z,6.30
2018-09-01T03:31:54.547Z,6.77
2018-09-01T03:34:28.723Z,6.77
2018-09-01T03:37:02.855Z,6.20
2018-09-01T03:39:37.005Z,5.80
2018-09-01T03:42:11.154Z,5.90
2018-09-01T03:44:46.358Z,5.50
2018-09-01T03:47:20.548Z,5.70
2018-09-01T03:49:55.806Z,5.57
2018-09-01T03:52:30.001Z,5.67
2018-09-01T03:55:04.173Z,5.63
2018-09-01T03:57:38.351Z,5.60
2018-09-01T04:00:12.528Z,5.60
2018-09-01T04:02:46.720Z,6.00
2018-09-01T04:05:20.899Z,5.40
2018-09-01T04:07:56.148Z,5.50
2018-09-01T04:10:30.325Z,5.27
2018-09-01T04:13:04.548Z,5.43
2018-09-01T04:15:38.691Z,5.17
2018-09-01T04:18:13.069Z,5.50
2018-09-01T04:20:47.329Z,4.63
2018-09-01T04:23:21.495Z,5.80
2018-09-01T04:25:55.827Z,5.00
2018-09-01T04:28:31.139Z,6.33
2018-09-01T04:31:05.694Z,6.23
2018-09-01T04:33:39.866Z,6.93
2018-09-01T04:36:14.033Z,5.93
2018-09-01T04:38:48.212Z,6.30
2018-09-01T04:41:22.425Z,5.60
2018-09-01T04:43:57.660Z,6.20
2018-09-01T04:46:31.919Z,7.93
2018-09-01T04:49:06.097Z,7.43
2018-09-01T04:51:40.260Z,7.20
2018-09-01T04:54:14.442Z,6.40
2018-09-01T04:56:49.611Z,6.10
2018-09-01T04:59:23.818Z,5.87
2018-09-01T05:01:57.977Z,6.37
2018-09-01T05:04:32.153Z,7.13
2018-09-01T05:07:06.360Z,6.03
2018-09-01T05:09:40.551Z,6.63
2018-09-01T05:12:15.769Z,5.70
2018-09-01T05:14:50.503Z,5.35
2018-09-01T05:17:25.213Z,7.05
2018-09-01T05:20:00.427Z,5.93
2018-09-01T05:22:35.128Z,6.58
2018-09-01T05:25:09.943Z,7.03
2018-09-01T05:27:44.646Z,6.42
2018-09-01T05:30:19.415Z,5.85
2018-09-01T05:32:55.118Z,6.75
2018-09-01T05:35:29.891Z,5.85
2018-09-01T05:38:04.877Z,7.00
2018-09-01T05:40:39.699Z,5.47
2018-09-01T05:43:14.429Z,3.83
2018-09-01T05:45:49.203Z,3.30
2018-09-01T05:48:23.932Z,4.10
2018-09-01T05:50:58.727Z,3.92
2018-09-01T05:53:33.480Z,3.40
2018-09-01T05:56:08.253Z,2.87
2018-09-01T05:58:42.976Z,3.17
2018-09-01T06:01:17.761Z,3.02
2018-09-01T06:03:52.558Z,2.65
2018-09-01T06:06:27.294Z,2.60
2018-09-01T06:09:02.199Z,2.52
2018-09-01T06:11:37.003Z,2.60
2018-09-01T06:14:11.749Z,2.60
2018-09-01T06:16:46.448Z,2.33
2018-09-01T06:19:21.325Z,2.30
2018-09-01T06:21:56.184Z,2.33
2018-09-01T06:24:30.930Z,2.00
2018-09-01T06:27:11.692Z,2.00
2018-09-01T06:29:46.482Z,1.70
2018-09-01T06:32:21.305Z,1.77
2018-09-01T06:34:56.236Z,1.90
2018-09-01T06:37:32.077Z,1.70
2018-09-01T06:40:07.252Z,2.95
2018-09-01T06:42:41.945Z,1.90
2018-09-01T06:45:16.691Z,1.67
2018-09-01T06:47:51.442Z,1.60
2018-09-01T06:50:26.160Z,2.15
2018-09-01T06:53:01.024Z,1.47
2018-09-01T06:55:35.743Z,1.55
2018-09-01T06:58:10.456Z,1.30
2018-09-01T07:00:45.260Z,1.45
2018-09-01T07:03:19.976Z,1.45
2018-09-01T07:05:54.696Z,1.60
2018-09-01T07:08:29.394Z,1.87
2018-09-01T07:11:04.131Z,1.90
2018-09-01T07:13:38.861Z,1.32
2018-09-01T07:16:13.594Z,1.75
2018-09-01T07:18:48.333Z,1.60
2018-09-01T07:21:23.069Z,1.77
2018-09-01T07:23:57.767Z,1.60
2018-09-01T07:26:32.501Z,1.82
2018-09-01T07:29:07.247Z,1.45
2018-09-01T07:31:42.215Z,1.37
2018-09-01T07:34:16.908Z,1.65
2018-09-01T07:36:51.696Z,1.90
2018-09-01T07:39:26.442Z,3.12
2018-09-01T07:42:01.197Z,4.35
2018-09-01T07:44:35.978Z,4.28
2018-09-01T07:47:10.997Z,29.12
2018-09-01T07:49:45.706Z,3.22
2018-09-01T07:52:20.444Z,41.83
2018-09-01T07:54:55.232Z,12.63
2018-09-01T07:57:29.970Z,8.75
2018-09-01T08:00:04.981Z,24.23
2018-09-01T08:02:39.807Z,20.57
2018-09-01T08:05:15.588Z,22.07
2018-09-01T08:07:50.277Z,30.60
2018-09-01T08:10:25.013Z,7.72
2018-09-01T08:12:59.721Z,2.65
2018-09-01T08:15:35.522Z,3.50
2018-09-01T08:18:10.208Z,4.25
2018-09-01T08:20:44.975Z,7.28
2018-09-01T08:23:19.668Z,2.65
2018-09-01T08:25:54.421Z,3.50
2018-09-01T08:28:29.207Z,2.27
2018-09-01T08:31:03.957Z,2.35
2018-09-01T08:33:38.525Z,1.80
2018-09-01T08:36:13.150Z,1.90
2018-09-01T08:38:47.552Z,1.80
2018-09-01T08:41:23.021Z,1.90
2018-09-01T08:43:57.450Z,1.70
2018-09-01T08:46:32.958Z,2.40
2018-09-01T08:49:07.391Z,1.63
2018-09-01T08:51:42.896Z,1.70
2018-09-01T08:54:17.366Z,2.00
2018-09-01T08:56:51.918Z,1.23
2018-09-01T08:59:26.333Z,1.80
2018-09-01T09:02:00.777Z,1.90
2018-09-01T09:04:35.235Z,2.13
2018-09-01T09:07:09.655Z,1.37
2018-09-01T09:09:44.139Z,1.90
2018-09-01T09:12:18.583Z,1.40
2018-09-01T09:14:53.316Z,1.60
2018-09-01T09:17:28.862Z,1.57
2018-09-01T09:20:03.300Z,1.63
2018-09-01T09:22:37.755Z,1.47
2018-09-01T09:25:13.236Z,2.00
2018-09-01T09:27:47.698Z,2.20
2018-09-01T09:30:22.094Z,2.30
2018-09-01T09:32:57.564Z,2.07
2018-09-01T09:35:31.979Z,1.30
2018-09-01T09:38:06.449Z,1.70
2018-09-01T09:40:40.895Z,1.40
2018-09-01T09:43:15.361Z,1.40
2018-09-01T09:45:49.791Z,1.60
2018-09-01T09:48:24.227Z,1.80
2018-09-01T09:50:58.656Z,1.33
2018-09-01T09:53:33.067Z,1.27
2018-09-01T09:56:07.516Z,1.70
2018-09-01T09:58:42.033Z,1.30
2018-09-01T10:01:21.702Z,1.63
2018-09-01T10:03:56.177Z,1.33
2018-09-01T10:06:30.832Z,1.60
2018-09-01T10:09:10.534Z,1.70
2018-09-01T10:11:45.196Z,1.70
2018-09-01T10:14:20.668Z,1.57
2018-09-01T10:16:55.170Z,1.50
2018-09-01T10:19:29.592Z,1.60
2018-09-01T10:22:04.102Z,1.60
2018-09-01T10:24:39.552Z,2.03
2018-09-01T10:27:14.023Z,2.10
2018-09-01T10:29:48.439Z,1.97
2018-09-01T10:32:24.014Z,1.50
2018-09-01T10:34:59.487Z,1.83
2018-09-01T10:37:34.202Z,2.12
2018-09-01T10:40:08.939Z,1.60
2018-09-01T10:42:43.665Z,1.60
2018-09-01T10:45:18.348Z,1.92
2018-09-01T10:47:53.092Z,2.02
2018-09-01T10:50:27.830Z,1.80
2018-09-01T10:53:02.313Z,1.80
2018-09-01T10:55:37.025Z,1.35
2018-09-01T10:58:11.750Z,1.57
2018-09-01T11:00:47.487Z,1.80
2018-09-01T11:03:22.258Z,1.70
2018-09-01T11:05:57.004Z,2.00
2018-09-01T11:08:31.799Z,1.95
2018-09-01T11:11:06.962Z,1.67
2018-09-01T11:13:41.705Z,2.33
2018-09-01T11:16:16.434Z,1.90
2018-09-01T11:18:51.210Z,1.90
2018-09-01T11:21:25.926Z,2.20
2018-09-01T11:24:01.723Z,1.55
2018-09-01T11:26:36.424Z,1.72
2018-09-01T11:29:11.255Z,1.87
2018-09-01T11:31:45.969Z,1.55
2018-09-01T11:34:20.740Z,1.92
2018-09-01T11:36:55.513Z,1.50
2018-09-01T11:39:30.453Z,1.60
2018-09-01T11:42:05.180Z,1.25
2018-09-01T11:44:39.917Z,1.60
2018-09-01T11:47:14.647Z,1.27
2018-09-01T11:49:49.407Z,1.42
2018-09-01T11:52:24.181Z,1.37
2018-09-01T11:54:58.911Z,1.47
2018-09-01T11:57:34.614Z,1.20
2018-09-01T12:00:10.429Z,1.60
2018-09-01T12:02:45.208Z,1.45
2018-09-01T12:05:19.927Z,1.20
2018-09-01T12:07:54.714Z,1.42
2018-09-01T12:10:29.413Z,1.20
2018-09-01T12:13:05.636Z,1.62
2018-09-01T12:15:40.474Z,1.12
2018-09-01T12:18:15.336Z,1.20
2018-09-01T12:20:50.130Z,1.10
2018-09-01T12:23:24.856Z,1.12
2018-09-01T12:25:59.572Z,1.30
2018-09-01T12:28:35.344Z,1.60
2018-09-01T12:31:10.302Z,1.50
2018-09-01T12:33:45.043Z,1.20
2018-09-01T12:36:19.849Z,0.90
2018-09-01T12:38:54.679Z,1.07
2018-09-01T12:41:29.417Z,1.10
2018-09-01T12:44:04.162Z,1.32
2018-09-01T12:46:38.904Z,1.10
2018-09-01T12:49:13.683Z,1.37
2018-09-01T12:51:48.416Z,1.17
2018-09-01T12:54:23.171Z,1.30
2018-09-01T12:56:57.896Z,1.22
2018-09-01T12:59:32.724Z,1.35
2018-09-01T13:02:07.483Z,1.15
2018-09-01T13:04:42.225Z,1.27
2018-09-01T13:07:17.918Z,1.72
2018-09-01T13:09:52.634Z,1.60
2018-09-01T13:12:27.390Z,1.32
2018-09-01T13:15:02.132Z,1.65
2018-09-01T13:17:37.824Z,1.50
2018-09-01T13:20:12.577Z,1.55
2018-09-01T13:22:47.309Z,1.70
2018-09-01T13:25:22.083Z,1.30
2018-09-01T13:27:56.964Z,1.60
2018-09-01T13:30:31.702Z,1.55
2018-09-01T13:33:07.472Z,1.30
2018-09-01T13:35:43.245Z,1.30
2018-09-01T13:38:18.058Z,1.47
2018-09-01T13:40:52.824Z,1.50
2018-09-01T13:43:27.524Z,1.52
2018-09-01T13:46:03.423Z,1.30
2018-09-01T13:48:38.293Z,1.55
2018-09-01T13:51:14.090Z,1.42
2018-09-01T13:53:48.858Z,1.30
2018-09-01T13:56:23.681Z,1.45
2018-09-01T13:58:59.430Z,1.80
2018-09-01T14:01:34.170Z,1.45
2018-09-01T14:04:08.920Z,1.20
2018-09-01T14:06:43.658Z,1.45
2018-09-01T14:09:18.412Z,1.30
2018-09-01T14:11:53.175Z,1.50
2018-09-01T14:14:28.050Z,1.40
2018-09-01T14:17:02.948Z,1.10
2018-09-01T14:19:37.745Z,1.20
2018-09-01T14:22:12.443Z,1.30
2018-09-01T14:24:47.200Z,1.30
2018-09-01T14:27:21.899Z,1.30
2018-09-01T14:29:56.657Z,1.37
2018-09-01T14:32:31.384Z,1.35
2018-09-01T14:35:07.314Z,1.30
2018-09-01T14:37:42.076Z,1.20
2018-09-01T14:40:16.810Z,1.20
2018-09-01T14:42:51.608Z,1.10
2018-09-01T14:45:26.420Z,1.25
2018-09-01T14:48:01.144Z,1.22
2018-09-01T14:50:35.959Z,1.10
2018-09-01T14:53:10.682Z,1.20
2018-09-01T14:55:45.632Z,1.20
2018-09-01T14:58:20.554Z,1.50
2018-09-01T15:00:56.260Z,0.95
2018-09-01T15:03:30.977Z,1.42
2018-09-01T15:06:05.761Z,1.20
2018-09-01T15:08:40.449Z,1.30
2018-09-01T15:11:15.178Z,1.72
2018-09-01T15:13:49.872Z,1.40
2018-09-01T15:16:24.590Z,1.00
2018-09-01T15:18:59.331Z,1.30
2018-09-01T15:21:34.062Z,1.20
2018-09-01T15:24:09.092Z,1.22
2018-09-01T15:26:43.803Z,1.27
2018-09-01T15:29:18.540Z,1.20
2018-09-01T15:31:53.271Z,1.20
2018-09-01T15:34:28.022Z,1.20
2018-09-01T15:37:03.808Z,1.40
2018-09-01T15:39:39.540Z,1.45
2018-09-01T15:42:15.312Z,5.60
2018-09-01T15:44:50.108Z,29.65
2018-09-01T15:47:26.111Z,3.05
2018-09-01T15:50:00.877Z,2.58
2018-09-01T15:52:35.657Z,1.57
2018-09-01T15:55:10.447Z,1.17
2018-09-01T15:57:45.196Z,1.42
2018-09-01T16:00:19.944Z,1.20
2018-09-01T16:02:54.642Z,1.35
2018-09-01T16:05:29.378Z,1.37
2018-09-01T16:08:04.098Z,1.60
2018-09-01T16:10:39.892Z,1.30
2018-09-01T16:13:14.662Z,1.30
2018-09-01T16:15:49.391Z,1.32
2018-09-01T16:18:24.104Z,1.00
2018-09-01T16:20:58.861Z,1.00
2018-09-01T16:23:33.558Z,1.20
2018-09-01T16:26:08.372Z,1.17
2018-09-01T16:28:44.119Z,1.17
2018-09-01T16:31:18.864Z,1.20
2018-09-01T16:33:53.554Z,1.10
2018-09-01T16:36:28.332Z,1.30
2018-09-01T16:39:03.056Z,1.20
2018-09-01T16:41:37.808Z,1.10
2018-09-01T16:44:12.535Z,1.10
2018-09-01T16:46:47.302Z,1.30
2018-09-01T16:49:22.068Z,1.12
2018-09-01T16:51:56.842Z,1.30
2018-09-01T16:54:31.588Z,1.27
2018-09-01T16:57:06.616Z,0.93
2018-09-01T16:59:42.326Z,1.15
2018-09-01T17:02:17.090Z,1.27
2018-09-01T17:04:51.809Z,1.30
2018-09-01T17:07:26.571Z,1.35
2018-09-01T17:10:01.396Z,1.27
2018-09-01T17:12:36.196Z,1.45
2018-09-01T17:15:12.048Z,1.32
2018-09-01T17:17:46.816Z,1.42
2018-09-01T17:20:21.523Z,1.15
2018-09-01T17:22:57.212Z,1.90
2018-09-01T17:25:32.552Z,1.47
2018-09-01T17:28:07.420Z,1.30
2018-09-01T17:30:42.321Z,1.50
2018-09-01T17:33:17.147Z,1.35
2018-09-01T17:35:51.880Z,1.22
2018-09-01T17:38:26.603Z,1.60
2018-09-01T17:41:02.358Z,1.92
2018-09-01T17:43:37.094Z,1.32
2018-09-01T17:46:11.822Z,1.40
2018-09-01T17:48:46.539Z,1.70
2018-09-01T17:51:21.295Z,1.85
2018-09-01T17:53:56.021Z,1.82
2018-09-01T17:56:30.885Z,1.57
2018-09-01T17:59:06.794Z,1.42
2018-09-01T18:01:41.577Z,1.60
2018-09-01T18:04:16.327Z,1.50
2018-09-01T18:06:52.098Z,1.75
2018-09-01T18:09:26.861Z,1.87
2018-09-01T18:12:01.619Z,1.80
2018-09-01T18:14:36.340Z,1.70
2018-09-01T18:17:11.082Z,1.82
2018-09-01T18:19:45.845Z,1.92
2018-09-01T18:22:20.584Z,2.12
2018-09-01T18:24:56.282Z,1.80
2018-09-01T18:27:31.060Z,1.92
2018-09-01T18:30:06.712Z,1.90
2018-09-01T18:32:41.479Z,1.75
2018-09-01T18:35:16.265Z,2.30
2018-09-01T18:37:52.175Z,1.80
2018-09-01T18:40:26.884Z,2.30
2018-09-01T18:43:01.676Z,2.40
2018-09-01T18:45:36.423Z,2.27
2018-09-01T18:48:12.204Z,2.22
2018-09-01T18:50:47.255Z,2.40
2018-09-01T18:53:22.056Z,2.42
2018-09-01T18:55:56.762Z,3.00
2018-09-01T18:58:32.511Z,3.17
2018-09-01T19:01:08.227Z,5.28
2018-09-01T19:03:44.078Z,4.97
2018-09-01T19:06:19.806Z,5.60
2018-09-01T19:08:54.537Z,5.10
2018-09-01T19:11:29.283Z,5.50
2018-09-01T19:14:04.061Z,5.92
2018-09-01T19:16:38.975Z,4.72
2018-09-01T19:19:13.740Z,4.12
2018-09-01T19:21:50.180Z,4.53
2018-09-01T19:24:24.973Z,4.70
2018-09-01T19:26:59.687Z,4.87
2018-09-01T19:29:34.595Z,4.55
2018-09-01T19:32:09.291Z,5.10
2018-09-01T19:34:44.129Z,4.72
2018-09-01T19:37:19.245Z,5.12
2018-09-01T19:39:53.959Z,5.53
2018-09-01T19:42:28.672Z,5.35
2018-09-01T19:45:03.558Z,5.78
2018-09-01T19:47:39.491Z,5.85
2018-09-01T19:50:14.247Z,6.58
2018-09-01T19:52:48.976Z,7.10
2018-09-01T19:55:23.718Z,11.60
2018-09-01T19:57:58.503Z,15.23
2018-09-01T20:00:33.279Z,13.13
2018-09-01T20:03:08.060Z,14.85
2018-09-01T20:05:42.839Z,14.40
2018-09-01T20:08:18.674Z,13.90
2018-09-01T20:10:54.449Z,14.53
2018-09-01T20:13:29.162Z,9.20
2018-09-01T20:16:04.929Z,7.58
2018-09-01T20:18:39.691Z,6.55
2018-09-01T20:21:14.488Z,6.55
2018-09-01T20:23:50.270Z,5.30
2018-09-01T20:26:24.996Z,5.78
2018-09-01T20:28:59.739Z,5.97
2018-09-01T20:31:34.435Z,6.60
2018-09-01T20:34:09.151Z,6.30
2018-09-01T20:36:43.850Z,5.45
2018-09-01T20:39:18.605Z,4.70
2018-09-01T20:41:53.305Z,5.25
2018-09-01T20:44:29.084Z,4.97
2018-09-01T20:47:03.637Z,4.83
2018-09-01T20:49:38.353Z,5.47
2018-09-01T20:52:13.187Z,5.53
2018-09-01T20:54:48.929Z,4.95
2018-09-01T20:57:23.142Z,5.20
2018-09-01T20:59:57.884Z,5.30
2018-09-01T21:02:32.577Z,5.87
2018-09-01T21:05:07.335Z,5.65
2018-09-01T21:07:42.159Z,5.37
2018-09-01T21:10:18.005Z,5.55
2018-09-01T21:12:52.824Z,5.83
2018-09-01T21:15:28.550Z,5.80
2018-09-01T21:18:02.721Z,5.92
2018-09-01T21:20:37.464Z,5.42
2018-09-01T21:23:12.240Z,5.80
2018-09-01T21:25:46.460Z,6.57
2018-09-01T21:28:20.643Z,6.10
2018-09-01T21:30:55.402Z,6.03
2018-09-01T21:33:29.568Z,5.37
2018-09-01T21:36:03.920Z,5.95
2018-09-01T21:38:38.661Z,6.22
2018-09-01T21:41:13.398Z,6.03
2018-09-01T21:43:47.626Z,5.80
2018-09-01T21:46:22.863Z,6.23
2018-09-01T21:48:57.664Z,6.45
2018-09-01T21:51:31.894Z,5.60
2018-09-01T21:54:06.089Z,5.92
2018-09-01T21:56:40.308Z,5.93
2018-09-01T21:59:15.508Z,5.70
2018-09-01T22:01:56.495Z,5.45
2018-09-01T22:04:35.280Z,6.42
2018-09-01T22:07:10.036Z,6.33
2018-09-01T22:09:44.196Z,6.23
2018-09-01T22:12:18.748Z,7.07
2018-09-01T22:14:53.944Z,6.45
2018-09-01T22:17:28.115Z,6.63
2018-09-01T22:20:02.321Z,7.10
2018-09-01T22:22:37.539Z,6.60
2018-09-01T22:25:11.671Z,7.23
2018-09-01T22:27:45.883Z,8.10
2018-09-01T22:30:20.060Z,7.60
2018-09-01T22:32:54.266Z,8.10
2018-09-01T22:35:29.496Z,8.63
2018-09-01T22:38:03.717Z,8.10
2018-09-01T22:40:37.815Z,8.03
2018-09-01T22:43:12.044Z,7.77
2018-09-01T22:45:46.208Z,7.27
2018-09-01T22:48:20.403Z,8.30
2018-09-01T22:50:54.572Z,8.03
2018-09-01T22:53:28.783Z,8.37
2018-09-01T22:56:03.568Z,8.48
2018-09-01T22:58:37.800Z,8.30
2018-09-01T23:01:11.948Z,9.37
2018-09-01T23:03:46.256Z,9.47
2018-09-01T23:06:20.387Z,9.47
2018-09-01T23:08:54.557Z,9.67
2018-09-01T23:11:28.749Z,9.40
2018-09-01T23:14:02.986Z,10.47
2018-09-01T23:16:37.168Z,11.50
2018-09-01T23:19:11.376Z,10.10
2018-09-01T23:21:46.541Z,10.47
2018-09-01T23:24:21.754Z,11.23
2018-09-01T23:26:55.939Z,11.40
2018-09-01T23:29:31.186Z,11.77
2018-09-01T23:32:05.388Z,11.83
2018-09-01T23:34:39.600Z,11.77
2018-09-01T23:37:13.760Z,9.93
2018-09-01T23:39:48.047Z,10.73
2018-09-01T23:42:22.203Z,10.27
2018-09-01T23:44:57.647Z,9.97
2018-09-01T23:47:31.825Z,10.27
2018-09-01T23:50:06.732Z,9.47
2018-09-01T23:52:40.888Z,9.00
2018-09-01T23:55:15.223Z,9.90
2018-09-01T23:57:49.565Z,9.40
